createdAt,value
2022-10-31T00:01:18.782Z,9.60
2022-10-31T00:03:46.734Z,9.70
2022-10-31T00:06:14.143Z,9.70
2022-10-31T00:08:41.382Z,9.70
2022-10-31T00:11:12.031Z,9.60
2022-10-31T00:13:39.318Z,9.60
2022-10-31T00:16:14.143Z,9.50
2022-10-31T00:18:41.301Z,9.60
2022-10-31T00:21:08.582Z,9.60
2022-10-31T00:23:35.716Z,10.00
2022-10-31T00:26:04.387Z,10.00
2022-10-31T00:28:32.797Z,9.90
2022-10-31T00:31:08.444Z,9.80
2022-10-31T00:33:37.672Z,9.90
2022-10-31T00:36:06.459Z,10.10
2022-10-31T00:38:33.883Z,10.00
2022-10-31T00:41:01.091Z,9.90
2022-10-31T00:43:28.326Z,10.10
2022-10-31T00:45:55.510Z,10.00
2022-10-31T00:48:22.908Z,10.20
2022-10-31T00:50:50.020Z,10.20
2022-10-31T00:53:17.291Z,10.10
2022-10-31T00:55:44.437Z,10.00
2022-10-31T00:58:11.658Z,10.00
2022-10-31T01:00:38.774Z,9.90
2022-10-31T01:03:05.975Z,9.80
2022-10-31T01:05:33.093Z,9.60
2022-10-31T01:08:00.305Z,9.50
2022-10-31T01:10:27.521Z,9.40
2022-10-31T01:12:54.658Z,9.40
2022-10-31T01:15:23.224Z,9.50
2022-10-31T01:17:51.114Z,9.50
2022-10-31T01:20:18.836Z,9.50
2022-10-31T01:22:46.277Z,9.40
2022-10-31T01:25:13.677Z,9.40
2022-10-31T01:27:40.887Z,9.50
2022-10-31T01:30:08.480Z,9.70
2022-10-31T01:32:35.634Z,9.60
2022-10-31T01:35:02.893Z,9.70
2022-10-31T01:37:31.266Z,9.60
2022-10-31T01:39:58.381Z,9.60
2022-10-31T01:42:25.474Z,9.40
2022-10-31T01:44:59.468Z,9.40
2022-10-31T01:47:36.494Z,9.50
2022-10-31T01:50:10.729Z,9.50
2022-10-31T01:52:42.234Z,9.60
2022-10-31T01:55:29.952Z,9.90
2022-10-31T01:58:05.313Z,10.00
2022-10-31T02:00:32.698Z,10.00
2022-10-31T02:03:01.078Z,9.80
2022-10-31T02:05:30.841Z,9.70
2022-10-31T02:08:24.106Z,9.50
2022-10-31T02:10:51.493Z,9.60
2022-10-31T02:13:19.837Z,10.00
2022-10-31T02:15:50.163Z,9.80
2022-10-31T02:18:18.450Z,9.60
2022-10-31T02:21:08.968Z,9.50
2022-10-31T02:24:03.614Z,9.60
2022-10-31T02:26:36.824Z,9.70
2022-10-31T02:29:26.845Z,10.00
2022-10-31T02:32:01.911Z,9.80
2022-10-31T02:34:53.711Z,9.90
2022-10-31T02:37:29.582Z,9.80
2022-10-31T02:40:08.926Z,9.40
2022-10-31T02:42:57.987Z,9.60
2022-10-31T02:45:34.962Z,9.60
2022-10-31T02:48:09.386Z,9.40
2022-10-31T02:50:41.628Z,9.20
2022-10-31T02:53:08.709Z,9.10
2022-10-31T02:55:35.986Z,9.10
2022-10-31T03:01:18.399Z,9.10
2022-10-31T03:03:58.877Z,9.70
2022-10-31T03:06:36.522Z,9.90
2022-10-31T03:09:35.829Z,10.00
2022-10-31T03:12:17.716Z,10.00
2022-10-31T03:15:13.811Z,9.60
2022-10-31T03:18:05.578Z,9.50
2022-10-31T03:20:43.369Z,9.80
2022-10-31T03:23:15.845Z,9.60
2022-10-31T03:25:44.317Z,9.60
2022-10-31T03:28:14.226Z,9.50
2022-10-31T03:30:44.885Z,9.60
2022-10-31T03:33:17.210Z,9.70
2022-10-31T03:35:47.682Z,10.00
2022-10-31T03:38:15.889Z,10.10
2022-10-31T03:40:46.934Z,10.60
2022-10-31T03:45:56.595Z,10.20
2022-10-31T03:48:24.417Z,10.20
2022-10-31T03:51:00.710Z,10.60
2022-10-31T03:53:38.830Z,10.50
2022-10-31T03:56:23.659Z,10.20
2022-10-31T03:59:06.820Z,10.20
2022-10-31T04:01:38.345Z,10.10
2022-10-31T04:04:06.785Z,10.20
2022-10-31T04:06:37.725Z,10.60
2022-10-31T04:09:07.818Z,10.40
2022-10-31T04:11:39.241Z,10.50
2022-10-31T04:14:08.131Z,10.30
2022-10-31T04:16:35.398Z,10.40
2022-10-31T04:19:02.545Z,10.70
2022-10-31T04:21:31.732Z,10.30
2022-10-31T04:23:59.093Z,10.00
2022-10-31T04:26:26.326Z,10.30
2022-10-31T04:28:53.478Z,10.30
2022-10-31T04:31:20.643Z,10.10
2022-10-31T04:33:47.780Z,10.20
2022-10-31T04:36:14.972Z,10.10
2022-10-31T04:38:42.300Z,9.90
2022-10-31T04:41:09.392Z,9.80
2022-10-31T04:43:36.657Z,9.60
2022-10-31T04:46:04.418Z,9.70
2022-10-31T04:48:31.600Z,9.70
2022-10-31T04:51:02.287Z,9.60
2022-10-31T04:53:29.986Z,9.70
2022-10-31T04:56:00.871Z,9.50
2022-10-31T04:58:28.562Z,9.20
2022-10-31T05:00:56.728Z,9.50
2022-10-31T05:03:24.160Z,9.60
2022-10-31T05:05:51.497Z,9.40
2022-10-31T05:08:18.662Z,9.50
2022-10-31T05:10:45.777Z,9.30
2022-10-31T05:13:13.254Z,9.30
2022-10-31T05:15:40.486Z,9.40
2022-10-31T05:18:07.621Z,9.20
2022-10-31T05:20:34.910Z,9.30
2022-10-31T05:23:02.017Z,9.40
2022-10-31T05:25:30.462Z,9.60
2022-10-31T05:27:58.875Z,9.60
2022-10-31T05:30:29.798Z,9.40
2022-10-31T05:32:57.671Z,9.20
2022-10-31T05:35:30.454Z,9.20
2022-10-31T05:37:58.761Z,9.00
2022-10-31T05:40:27.389Z,8.90
2022-10-31T05:42:56.553Z,8.90
2022-10-31T05:45:24.405Z,8.90
2022-10-31T05:47:52.306Z,9.30
2022-10-31T05:50:19.486Z,9.50
2022-10-31T05:52:46.774Z,9.40
2022-10-31T05:55:14.159Z,9.40
2022-10-31T05:57:41.273Z,9.40
2022-10-31T06:00:09.197Z,9.30
2022-10-31T06:02:36.350Z,9.20
2022-10-31T06:05:04.055Z,9.10
2022-10-31T06:07:35.511Z,9.10
2022-10-31T06:10:05.954Z,9.30
2022-10-31T06:12:38.452Z,9.40
2022-10-31T06:15:09.891Z,9.50
2022-10-31T06:17:37.847Z,9.90
2022-10-31T06:20:06.192Z,9.90
2022-10-31T06:22:33.347Z,9.70
2022-10-31T06:25:00.688Z,9.70
2022-10-31T06:27:28.117Z,9.60
2022-10-31T06:29:55.310Z,9.70
2022-10-31T06:32:22.445Z,9.90
2022-10-31T06:34:49.549Z,10.00
2022-10-31T06:37:16.993Z,10.00
2022-10-31T06:39:44.166Z,10.00
2022-10-31T06:42:11.297Z,10.10
2022-10-31T06:44:38.521Z,10.20
2022-10-31T06:47:06.805Z,10.30
2022-10-31T06:49:34.361Z,10.30
2022-10-31T06:52:01.528Z,10.40
2022-10-31T06:54:28.654Z,10.60
2022-10-31T06:56:55.728Z,11.00
2022-10-31T06:59:22.922Z,11.50
2022-10-31T07:01:50.210Z,11.70
2022-10-31T07:04:17.478Z,11.60
2022-10-31T07:06:48.249Z,11.60
2022-10-31T07:09:18.797Z,11.60
2022-10-31T07:11:45.913Z,11.80
2022-10-31T07:14:13.052Z,11.80
2022-10-31T07:16:40.162Z,11.80
2022-10-31T07:19:07.285Z,11.80
2022-10-31T07:21:34.459Z,11.90
2022-10-31T07:24:01.613Z,11.90
2022-10-31T07:26:28.963Z,11.90
2022-10-31T07:28:56.097Z,12.00
2022-10-31T07:31:23.242Z,12.00
2022-10-31T07:33:51.064Z,12.10
2022-10-31T07:36:18.279Z,12.20
2022-10-31T07:38:45.386Z,12.20
2022-10-31T07:41:12.488Z,12.30
2022-10-31T07:43:39.627Z,12.30
2022-10-31T07:46:06.812Z,12.40
2022-10-31T07:48:33.893Z,12.30
2022-10-31T07:51:01.030Z,12.40
2022-10-31T07:53:28.326Z,12.40
2022-10-31T07:55:55.489Z,12.50
2022-10-31T07:58:22.619Z,12.50
2022-10-31T08:00:49.879Z,12.60
2022-10-31T08:03:20.123Z,12.70
2022-10-31T08:05:47.542Z,12.90
2022-10-31T08:08:15.719Z,13.00
2022-10-31T08:10:43.520Z,13.00
2022-10-31T08:13:12.797Z,13.10
2022-10-31T08:15:42.437Z,13.20
2022-10-31T08:18:14.710Z,13.40
2022-10-31T08:20:42.632Z,13.50
2022-10-31T08:23:11.878Z,13.60
2022-10-31T08:25:39.679Z,13.70
2022-10-31T08:28:07.977Z,13.80
2022-10-31T08:30:36.985Z,14.00
2022-10-31T08:33:14.101Z,14.10
2022-10-31T08:35:41.650Z,14.20
2022-10-31T08:38:11.073Z,14.20
2022-10-31T08:40:38.900Z,14.40
2022-10-31T08:43:14.338Z,14.50
2022-10-31T08:45:42.117Z,14.60
2022-10-31T08:48:16.690Z,14.70
2022-10-31T08:50:45.730Z,14.80
2022-10-31T08:53:14.169Z,14.90
2022-10-31T08:55:42.565Z,15.10
2022-10-31T08:58:18.584Z,15.20
2022-10-31T09:00:47.364Z,15.30
2022-10-31T09:03:16.817Z,15.40
2022-10-31T09:05:44.301Z,15.60
2022-10-31T09:08:15.932Z,15.80
2022-10-31T09:10:44.679Z,15.80
2022-10-31T09:13:14.279Z,15.80
2022-10-31T09:15:44.803Z,15.90
2022-10-31T09:18:13.515Z,16.10
2022-10-31T09:20:42.946Z,16.30
2022-10-31T09:23:21.570Z,16.30
2022-10-31T09:25:51.832Z,16.30
2022-10-31T09:28:21.364Z,16.40
2022-10-31T09:30:50.489Z,16.50
2022-10-31T09:33:18.340Z,16.50
2022-10-31T09:35:45.549Z,16.50
2022-10-31T09:38:21.828Z,16.60
2022-10-31T09:41:07.558Z,16.70
2022-10-31T09:43:34.598Z,16.80
2022-10-31T09:46:29.524Z,16.90
2022-10-31T09:49:05.642Z,16.90
2022-10-31T09:51:50.480Z,17.00
2022-10-31T09:54:27.143Z,17.10
2022-10-31T09:56:56.830Z,17.20
2022-10-31T09:59:31.269Z,17.20
2022-10-31T10:02:02.091Z,17.30
2022-10-31T10:04:58.074Z,17.40
2022-10-31T10:07:37.188Z,17.50
2022-10-31T10:10:16.118Z,17.60
2022-10-31T10:12:57.854Z,17.60
2022-10-31T10:15:38.472Z,17.80
2022-10-31T10:18:25.906Z,17.80
2022-10-31T10:21:02.594Z,17.70
2022-10-31T10:23:29.671Z,17.80
2022-10-31T10:26:15.088Z,17.80
2022-10-31T10:28:47.547Z,17.90
2022-10-31T10:31:32.686Z,17.90
2022-10-31T10:34:30.613Z,18.00
2022-10-31T10:37:02.924Z,18.00
2022-10-31T10:39:56.183Z,18.00
2022-10-31T10:42:46.601Z,18.10
2022-10-31T10:45:38.253Z,18.10
2022-10-31T10:48:43.678Z,18.20
2022-10-31T10:52:07.591Z,18.30
2022-10-31T10:54:49.829Z,18.30
2022-10-31T10:57:43.296Z,18.40
2022-10-31T11:00:30.987Z,18.50
2022-10-31T11:02:58.534Z,18.60
2022-10-31T11:05:37.944Z,18.60
2022-10-31T11:08:06.500Z,18.60
2022-10-31T11:10:34.427Z,18.70
2022-10-31T11:13:13.478Z,18.70
2022-10-31T11:16:05.796Z,18.70
2022-10-31T11:18:37.877Z,18.80
2022-10-31T11:21:06.362Z,18.80
2022-10-31T11:23:34.063Z,18.70
2022-10-31T11:26:04.267Z,18.70
2022-10-31T11:28:36.015Z,18.80
2022-10-31T11:31:14.485Z,18.80
2022-10-31T11:33:49.105Z,18.90
2022-10-31T11:36:24.055Z,19.00
2022-10-31T11:38:52.505Z,19.00
2022-10-31T11:41:39.906Z,19.10
2022-10-31T11:44:15.938Z,19.10
2022-10-31T11:46:47.811Z,19.20
2022-10-31T11:49:37.181Z,19.30
2022-10-31T11:52:20.819Z,19.40
2022-10-31T11:54:52.002Z,19.40
2022-10-31T11:57:34.526Z,19.50
2022-10-31T12:00:05.008Z,19.50
2022-10-31T12:02:32.676Z,19.50
2022-10-31T12:05:24.006Z,19.60
2022-10-31T12:07:51.302Z,19.70
2022-10-31T12:10:25.670Z,19.70
2022-10-31T12:13:34.781Z,19.70
2022-10-31T12:16:54.135Z,19.70
2022-10-31T12:19:27.417Z,19.70
2022-10-31T12:21:57.531Z,19.70
2022-10-31T12:25:07.325Z,19.70
2022-10-31T12:28:09.319Z,19.80
2022-10-31T12:30:58.066Z,19.70
2022-10-31T12:33:34.208Z,19.70
2022-10-31T12:36:26.604Z,19.80
2022-10-31T12:39:18.589Z,19.80
2022-10-31T12:42:22.606Z,19.80
2022-10-31T12:44:58.638Z,19.80
2022-10-31T12:47:31.550Z,19.80
2022-10-31T12:50:23.669Z,19.80
2022-10-31T12:53:08.020Z,19.70
2022-10-31T12:55:43.913Z,19.80
2022-10-31T12:58:22.663Z,19.70
2022-10-31T13:01:03.119Z,19.70
2022-10-31T13:03:37.100Z,19.70
2022-10-31T13:06:10.593Z,19.70
2022-10-31T13:08:48.570Z,19.70
2022-10-31T13:11:28.446Z,19.60
2022-10-31T13:14:25.754Z,19.60
2022-10-31T13:16:55.374Z,19.70
2022-10-31T13:19:25.642Z,19.70
2022-10-31T13:22:18.412Z,19.60
2022-10-31T13:25:34.931Z,19.60
2022-10-31T13:28:06.199Z,19.60
2022-10-31T13:30:43.703Z,19.60
2022-10-31T13:33:20.392Z,19.70
2022-10-31T13:36:06.495Z,19.60
2022-10-31T13:38:48.700Z,19.60
2022-10-31T13:41:48.921Z,19.60
2022-10-31T13:44:25.038Z,19.50
2022-10-31T13:46:57.396Z,19.50
2022-10-31T13:49:30.576Z,19.50
2022-10-31T13:52:12.213Z,19.50
2022-10-31T13:54:45.777Z,19.40
2022-10-31T13:57:23.222Z,19.30
2022-10-31T13:59:55.949Z,19.30
2022-10-31T14:02:36.193Z,19.30
2022-10-31T14:05:06.184Z,19.30
2022-10-31T14:07:34.243Z,19.30
2022-10-31T14:10:28.219Z,19.20
2022-10-31T14:13:15.416Z,19.20
2022-10-31T14:15:53.624Z,19.10
2022-10-31T14:18:29.842Z,19.10
2022-10-31T14:20:57.063Z,19.00
2022-10-31T14:23:55.027Z,18.90
2022-10-31T14:26:29.319Z,18.90
2022-10-31T14:29:18.054Z,18.80
2022-10-31T14:31:53.955Z,18.80
2022-10-31T14:34:32.017Z,18.80
2022-10-31T14:37:17.095Z,18.70
2022-10-31T14:40:11.989Z,18.70
2022-10-31T14:43:08.255Z,18.60
2022-10-31T14:45:59.976Z,18.60
2022-10-31T14:48:52.239Z,18.50
2022-10-31T14:51:22.054Z,18.50
2022-10-31T14:53:55.274Z,18.40
2022-10-31T14:56:32.438Z,18.30
2022-10-31T14:59:09.232Z,18.20
2022-10-31T15:01:39.545Z,18.10
2022-10-31T15:04:23.115Z,18.10
2022-10-31T15:06:55.998Z,18.00
2022-10-31T15:09:44.469Z,17.80
2022-10-31T15:12:23.593Z,17.60
2022-10-31T15:14:50.785Z,17.50
2022-10-31T15:17:17.957Z,17.40
2022-10-31T15:19:45.586Z,17.20
2022-10-31T15:22:17.476Z,17.00
2022-10-31T15:24:45.290Z,16.90
2022-10-31T15:27:18.116Z,16.70
2022-10-31T15:29:51.297Z,16.50
2022-10-31T15:32:29.869Z,16.40
2022-10-31T15:34:58.284Z,16.20
2022-10-31T15:37:27.229Z,16.10
2022-10-31T15:39:54.377Z,16.00
2022-10-31T15:42:36.542Z,15.90
2022-10-31T15:45:06.774Z,15.80
2022-10-31T15:47:34.520Z,15.70
2022-10-31T15:50:04.290Z,15.70
2022-10-31T15:52:45.221Z,15.60
2022-10-31T15:55:26.445Z,15.40
2022-10-31T15:57:59.810Z,15.30
2022-10-31T16:00:39.358Z,15.10
2022-10-31T16:03:15.638Z,15.00
2022-10-31T16:05:57.770Z,14.80
2022-10-31T16:08:30.611Z,14.60
2022-10-31T16:11:14.995Z,14.50
2022-10-31T16:14:03.413Z,14.60
2022-10-31T16:16:35.615Z,14.40
2022-10-31T16:19:06.272Z,14.30
2022-10-31T16:21:36.083Z,14.10
2022-10-31T16:24:14.802Z,14.10
2022-10-31T16:26:42.560Z,14.10
2022-10-31T16:29:26.814Z,14.10
2022-10-31T16:31:54.435Z,14.00
2022-10-31T16:34:26.564Z,14.00
2022-10-31T16:36:54.475Z,13.90
2022-10-31T16:39:21.870Z,14.00
2022-10-31T16:41:55.805Z,13.90
2022-10-31T16:44:25.540Z,13.90
2022-10-31T16:47:09.898Z,13.90
2022-10-31T16:49:37.022Z,13.80
2022-10-31T16:52:04.219Z,13.80
2022-10-31T16:54:31.450Z,13.80
2022-10-31T16:57:04.841Z,13.70
2022-10-31T16:59:34.418Z,13.60
2022-10-31T17:02:03.353Z,13.50
2022-10-31T17:04:30.661Z,13.30
2022-10-31T17:06:57.817Z,13.10
2022-10-31T17:09:24.995Z,13.10
2022-10-31T17:11:53.965Z,13.10
2022-10-31T17:14:22.024Z,13.10
2022-10-31T17:16:50.043Z,13.00
2022-10-31T17:19:17.263Z,13.10
2022-10-31T17:21:44.581Z,13.10
2022-10-31T17:24:16.315Z,13.10
2022-10-31T17:26:44.069Z,13.00
2022-10-31T17:29:11.241Z,13.00
2022-10-31T17:31:39.425Z,12.90
2022-10-31T17:34:07.258Z,12.80
2022-10-31T17:36:35.349Z,12.60
2022-10-31T17:39:03.560Z,12.70
2022-10-31T17:41:30.778Z,12.60
2022-10-31T17:43:59.224Z,12.60
2022-10-31T17:46:27.670Z,12.50
2022-10-31T17:48:56.031Z,12.50
2022-10-31T17:51:23.321Z,12.40
2022-10-31T17:53:50.446Z,12.40
2022-10-31T17:56:17.757Z,12.30
2022-10-31T17:58:45.004Z,12.40
2022-10-31T18:01:16.503Z,12.40
2022-10-31T18:03:43.883Z,12.30
2022-10-31T18:06:12.273Z,12.30
2022-10-31T18:08:40.780Z,12.30
2022-10-31T18:11:15.809Z,12.20
2022-10-31T18:13:42.986Z,12.20
2022-10-31T18:16:15.507Z,12.10
2022-10-31T18:18:43.202Z,12.00
2022-10-31T18:21:10.521Z,11.90
2022-10-31T18:23:37.750Z,11.90
2022-10-31T18:26:05.201Z,11.90
2022-10-31T18:28:32.371Z,11.80
2022-10-31T18:31:03.794Z,11.60
2022-10-31T18:33:30.965Z,11.40
2022-10-31T18:36:04.903Z,11.30
2022-10-31T18:38:32.133Z,11.30
2022-10-31T18:40:59.414Z,11.20
2022-10-31T18:43:26.545Z,11.10
2022-10-31T18:45:58.022Z,11.10
2022-10-31T18:48:28.295Z,11.10
2022-10-31T18:50:58.101Z,11.10
2022-10-31T18:53:25.578Z,11.10
2022-10-31T18:55:52.769Z,11.00
2022-10-31T18:58:19.894Z,10.80
2022-10-31T19:00:47.207Z,10.80
2022-10-31T19:03:15.585Z,10.70
2022-10-31T19:05:43.034Z,10.60
2022-10-31T19:08:10.489Z,10.40
2022-10-31T19:10:41.669Z,10.30
2022-10-31T19:13:09.974Z,10.30
2022-10-31T19:15:37.212Z,10.40
2022-10-31T19:18:04.561Z,10.30
2022-10-31T19:20:32.253Z,10.30
2022-10-31T19:22:59.805Z,10.20
2022-10-31T19:25:27.096Z,10.10
2022-10-31T19:27:54.240Z,10.20
2022-10-31T19:30:21.608Z,10.30
2022-10-31T19:32:48.734Z,10.20
2022-10-31T19:35:15.931Z,10.30
2022-10-31T19:37:43.121Z,10.20
2022-10-31T19:40:11.098Z,10.20
2022-10-31T19:42:38.269Z,10.20
2022-10-31T19:45:05.904Z,10.20
2022-10-31T19:47:33.673Z,10.20
2022-10-31T19:50:00.890Z,10.10
2022-10-31T19:52:28.009Z,10.00
2022-10-31T19:54:55.126Z,9.90
2022-10-31T19:57:42.019Z,9.80
2022-10-31T20:00:10.183Z,9.80
2022-10-31T20:02:37.794Z,9.80
2022-10-31T20:05:05.272Z,9.90
2022-10-31T20:07:32.398Z,9.90
2022-10-31T20:09:59.549Z,9.80
2022-10-31T20:12:26.705Z,9.70
2022-10-31T20:14:53.793Z,9.60
2022-10-31T20:17:20.897Z,9.60
2022-10-31T20:19:48.018Z,9.50
2022-10-31T20:22:15.293Z,9.40
2022-10-31T20:24:42.421Z,9.30
2022-10-31T20:27:09.594Z,9.20
2022-10-31T20:29:36.842Z,9.30
2022-10-31T20:32:04.338Z,9.30
2022-10-31T20:34:31.489Z,9.30
2022-10-31T20:36:58.678Z,9.40
2022-10-31T20:39:25.933Z,9.40
2022-10-31T20:41:53.018Z,9.40
2022-10-31T20:44:20.234Z,9.40
2022-10-31T20:46:47.338Z,9.30
2022-10-31T20:49:14.534Z,9.30
2022-10-31T20:51:41.634Z,9.40
2022-10-31T20:54:12.891Z,9.30
2022-10-31T20:56:40.165Z,9.20
2022-10-31T20:59:07.590Z,9.20
2022-10-31T21:01:36.512Z,9.10
2022-10-31T21:04:04.825Z,9.00
2022-10-31T21:06:32.105Z,8.90
2022-10-31T21:08:59.350Z,8.90
2022-10-31T21:11:27.852Z,8.80
2022-10-31T21:13:55.023Z,8.90
2022-10-31T21:16:25.032Z,8.80
2022-10-31T21:18:53.516Z,9.00
2022-10-31T21:21:30.696Z,9.00
2022-10-31T21:24:07.918Z,8.90
2022-10-31T21:26:38.877Z,8.80
2022-10-31T21:29:06.917Z,8.80
2022-10-31T21:31:36.112Z,8.60
2022-10-31T21:34:03.877Z,8.60
2022-10-31T21:36:31.357Z,8.60
2022-10-31T21:38:58.671Z,8.50
2022-10-31T21:41:28.637Z,8.50
2022-10-31T21:43:56.076Z,8.60
2022-10-31T21:46:28.746Z,8.50
2022-10-31T21:48:56.662Z,8.60
2022-10-31T21:51:29.106Z,8.60
2022-10-31T21:54:15.035Z,8.70
2022-10-31T21:56:42.700Z,8.70
2022-10-31T21:59:10.330Z,8.70
2022-10-31T22:01:37.914Z,8.70
2022-10-31T22:04:05.984Z,8.70
2022-10-31T22:06:33.419Z,8.70
2022-10-31T22:09:03.449Z,8.70
2022-10-31T22:11:30.797Z,8.70
2022-10-31T22:14:01.966Z,8.70
2022-10-31T22:16:30.852Z,8.80
2022-10-31T22:19:00.002Z,8.80
2022-10-31T22:21:28.357Z,8.80
2022-10-31T22:24:01.794Z,8.80
2022-10-31T22:26:32.840Z,8.80
2022-10-31T22:29:02.595Z,8.80
2022-10-31T22:31:31.290Z,8.70
2022-10-31T22:33:58.682Z,8.60
2022-10-31T22:36:28.542Z,8.50
2022-10-31T22:38:55.946Z,8.40
2022-10-31T22:41:25.863Z,8.50
2022-10-31T22:43:55.310Z,8.50
2022-10-31T22:46:25.129Z,8.50
2022-10-31T22:48:57.913Z,8.50
2022-10-31T22:51:30.852Z,8.50
2022-10-31T22:53:58.249Z,8.60
2022-10-31T22:56:27.794Z,8.50
2022-10-31T22:58:55.274Z,8.60
2022-10-31T23:01:24.776Z,8.60
2022-10-31T23:03:52.427Z,8.60
2022-10-31T23:06:22.327Z,8.60
2022-10-31T23:08:50.412Z,8.60
2022-10-31T23:11:35.420Z,8.60
2022-10-31T23:14:10.682Z,8.60
2022-10-31T23:16:55.842Z,8.60
2022-10-31T23:19:26.485Z,8.70
2022-10-31T23:22:00.592Z,8.60
2022-10-31T23:24:44.226Z,8.60
2022-10-31T23:27:24.807Z,8.60
2022-10-31T23:29:54.239Z,8.60
2022-10-31T23:32:30.509Z,8.60
2022-10-31T23:35:00.557Z,8.50
2022-10-31T23:37:31.729Z,8.60
2022-10-31T23:39:59.247Z,8.60
2022-10-31T23:42:27.804Z,8.60
2022-10-31T23:44:55.537Z,8.60
2022-10-31T23:47:22.778Z,8.60
2022-10-31T23:49:50.725Z,8.60
2022-10-31T23:52:18.486Z,8.60
2022-10-31T23:54:45.672Z,8.50
2022-10-31T23:57:13.897Z,8.50
2022-10-31T23:59:41.225Z,8.40
